Aviation Digital Data Service (ADDS)

Output produced by METARs form (1652 UTC 21 January 2018)
found at http://aviationweather.gov/adds/metars/
 
METAR text: KRNT 211553Z 14012G22KT 10SM -RA BKN048 OVC065 11/04 A2973 RMK AO2 PK WND 15028/1514 SLP071 P0000 T01110039
Conditions at: KRNT (RENTON , WA, US) observed 1553 UTC 21 January 2018
Temperature: 11.1°C (52°F)
Dewpoint: 3.9°C (39°F) [RH = 61%]
Pressure (altimeter): 29.73 inches Hg (1006.9 mb)
[Sea-level pressure: 1007.1 mb]
Winds: from the SE (140 degrees) at 14 MPH (12 knots; 6.2 m/s)
gusting to 25 MPH (22 knots; 11.4 m/s)
Visibility: 10 or more miles (16+ km)
Ceiling: 4800 feet AGL
Clouds: broken clouds at 4800 feet AGL
overcast cloud deck at 6500 feet AGL
Weather: -RA  (light rain)

METAR text: KRNT 211453Z 15011G20KT 10SM -RA OVC050 12/02 A2976 RMK AO2 RAB13 SLP084 P0000 60000 T01170022 56031
Conditions at: KRNT (RENTON , WA, US) observed 1453 UTC 21 January 2018
Temperature: 11.7°C (53°F)
Dewpoint: 2.2°C (36°F) [RH = 52%]
Pressure (altimeter): 29.76 inches Hg (1007.9 mb)
[Sea-level pressure: 1008.4 mb]
Winds: from the SSE (150 degrees) at 13 MPH (11 knots; 5.7 m/s)
gusting to 23 MPH (20 knots; 10.4 m/s)
Visibility: 10 or more miles (16+ km)
Ceiling: 5000 feet AGL
Clouds: overcast cloud deck at 5000 feet AGL
Weather: -RA  (light rain)